High Tide — D5AA7 — position and weather

sailwx.info

Track history (hours):
 
Tides and Currents Weather Stations Pressure Air Temp Water Temp Dewpoint Dewpoint Depression Visibility Wind Speed Wind Dir Waves Ship Positions

High Tide

Last reported at 2016-Jun-19 19:20 UTC. Time now 2016-Jun-30 14:10 UTC.
Position N 01°55' E 102°20'.
Warning: this ship's position is 10 days out of date.

Length 183 m; draft 9.6 m.

Type: Tanker. MMSI: 636015337.

Date/timePositionNaut miles runAvg speedWind from/ knotsBaromVisibWave heightAir tempDewpointWater temp
2016-Jun-19 19:20N 01°55' E 102°20'1315.9
2016-Jun-19 18:33N 01°50' E 102°32'1615.9
2016-Jun-19 17:33N 01°44' E 102°46'7013.0
2016-Jun-19 12:08N 01°10' E 103°48'711.5
2016-Jun-19 11:33N 01°13' E 103°54'7 6.7
2016-Jun-19 10:32N 01°17' E 103°60'0 0.0
2016-Jun-19 09:29N 01°17' E 103°60'0 0.1
2016-Jun-19 08:32N 01°17' E 103°60'0 0.1
2016-Jun-19 06:29N 01°17' E 103°60'0 0.0
2016-Jun-19 04:29N 01°17' E 103°60'0 0.0
2016-Jun-19 03:29N 01°17' E 103°60'0 0.0
2016-Jun-19 02:23N 01°17' E 103°60'0 0.0
2016-Jun-18 23:11N 01°17' E 104°00'0 0.0
2016-Jun-18 22:29N 01°17' E 104°00'0 0.0
2016-Jun-18 21:32N 01°17' E 104°00'0 0.0
2016-Jun-18 20:11N 01°17' E 104°00'0 0.0
2016-Jun-18 19:12N 01°17' E 104°00'1 1.4
2016-Jun-18 18:32N 01°16' E 104°00'1 0.8
2016-Jun-18 17:33N 01°16' E 104°01'  
2016-Jun-11 07:34N 30°30' E 121°43'1010.1
2016-Jun-11 06:33N 30°31' E 121°31'9 8.5
2016-Jun-11 05:33N 30°34' E 121°21'8 7.9
2016-Jun-11 04:33N 30°41' E 121°17'1 0.5
2016-Jun-11 03:29N 30°41' E 121°17'0 0.0
2016-Jun-11 01:29N 30°41' E 121°17'0 0.0
2016-Jun-11 00:17N 30°41' E 121°17'0 0.0
2016-Jun-10 23:32N 30°41' E 121°17'0 0.0
2016-Jun-10 22:29N 30°41' E 121°17'0 0.0
2016-Jun-10 21:29N 30°41' E 121°17'0 0.0
2016-Jun-10 19:29N 30°41' E 121°17'0 0.0
2016-Jun-10 18:29N 30°41' E 121°17'0 0.0
2016-Jun-10 17:29N 30°41' E 121°17'0 0.0
2016-Jun-10 16:08N 30°41' E 121°17'0 0.0
2016-Jun-10 15:32N 30°41' E 121°17'0 0.0
2016-Jun-10 14:29N 30°41' E 121°17'0 0.0
2016-Jun-10 13:29N 30°41' E 121°17'0 0.0
2016-Jun-10 12:29N 30°41' E 121°17'0 0.0
2016-Jun-10 10:20N 30°41' E 121°17'0 0.0
2016-Jun-10 09:32N 30°41' E 121°17'0 0.0
2016-Jun-10 08:32N 30°41' E 121°17'0 0.0
2016-Jun-10 07:32N 30°41' E 121°17'0 0.0
2016-Jun-10 06:32N 30°41' E 121°17'0 0.0
2016-Jun-10 05:29N 30°41' E 121°17'0 0.0
2016-Jun-10 04:29N 30°41' E 121°17'0 0.0
2016-Jun-10 03:23N 30°41' E 121°17'0 0.0
2016-Jun-10 02:29N 30°41' E 121°17'0 0.0
2016-Jun-10 01:17N 30°41' E 121°17'0 0.0
2016-Jun-10 00:32N 30°41' E 121°17'0 0.0
2016-Jun-09 23:32N 30°41' E 121°17'0 0.0
2016-Jun-09 22:29N 30°41' E 121°17'0 0.0
2016-Jun-09 21:29N 30°41' E 121°17'0 0.0
2016-Jun-09 20:32N 30°41' E 121°17'0 0.0
2016-Jun-09 19:32N 30°41' E 121°17'  
Track history (hours):
 
Tides and Currents Weather Stations Pressure Air Temp Water Temp Dewpoint Dewpoint Depression Visibility Wind Speed Wind Dir Waves Ship Positions

High Tide

Last reported at 2016-Jun-19 19:20 UTC. Time now 2016-Jun-30 14:10 UTC.
Position N 01°55' E 102°20'.
Warning: this ship's position is 10 days out of date.

Length 183 m; draft 9.6 m.

Type: Tanker. MMSI: 636015337.

Date/timePositionNaut miles runAvg speedWind from/ knotsBaromVisibWave heightAir tempDewpointWater temp
2016-Jun-19 19:20N 01°55' E 102°20'1315.9
2016-Jun-19 18:33N 01°50' E 102°32'1615.9
2016-Jun-19 17:33N 01°44' E 102°46'7013.0
2016-Jun-19 12:08N 01°10' E 103°48'711.5
2016-Jun-19 11:33N 01°13' E 103°54'7 6.7
2016-Jun-19 10:32N 01°17' E 103°60'0 0.0
2016-Jun-19 09:29N 01°17' E 103°60'0 0.1
2016-Jun-19 08:32N 01°17' E 103°60'0 0.1
2016-Jun-19 06:29N 01°17' E 103°60'0 0.0
2016-Jun-19 04:29N 01°17' E 103°60'0 0.0
2016-Jun-19 03:29N 01°17' E 103°60'0 0.0
2016-Jun-19 02:23N 01°17' E 103°60'0 0.0
2016-Jun-18 23:11N 01°17' E 104°00'0 0.0
2016-Jun-18 22:29N 01°17' E 104°00'0 0.0
2016-Jun-18 21:32N 01°17' E 104°00'0 0.0
2016-Jun-18 20:11N 01°17' E 104°00'0 0.0
2016-Jun-18 19:12N 01°17' E 104°00'1 1.4
2016-Jun-18 18:32N 01°16' E 104°00'1 0.8
2016-Jun-18 17:33N 01°16' E 104°01'  
2016-Jun-11 07:34N 30°30' E 121°43'1010.1
2016-Jun-11 06:33N 30°31' E 121°31'9 8.5
2016-Jun-11 05:33N 30°34' E 121°21'8 7.9
2016-Jun-11 04:33N 30°41' E 121°17'1 0.5
2016-Jun-11 03:29N 30°41' E 121°17'0 0.0
2016-Jun-11 01:29N 30°41' E 121°17'0 0.0
2016-Jun-11 00:17N 30°41' E 121°17'0 0.0
2016-Jun-10 23:32N 30°41' E 121°17'0 0.0
2016-Jun-10 22:29N 30°41' E 121°17'0 0.0
2016-Jun-10 21:29N 30°41' E 121°17'0 0.0
2016-Jun-10 19:29N 30°41' E 121°17'0 0.0
2016-Jun-10 18:29N 30°41' E 121°17'0 0.0
2016-Jun-10 17:29N 30°41' E 121°17'0 0.0
2016-Jun-10 16:08N 30°41' E 121°17'0 0.0
2016-Jun-10 15:32N 30°41' E 121°17'0 0.0
2016-Jun-10 14:29N 30°41' E 121°17'0 0.0
2016-Jun-10 13:29N 30°41' E 121°17'0 0.0
2016-Jun-10 12:29N 30°41' E 121°17'0 0.0
2016-Jun-10 10:20N 30°41' E 121°17'0 0.0
2016-Jun-10 09:32N 30°41' E 121°17'0 0.0
2016-Jun-10 08:32N 30°41' E 121°17'0 0.0
2016-Jun-10 07:32N 30°41' E 121°17'0 0.0
2016-Jun-10 06:32N 30°41' E 121°17'0 0.0
2016-Jun-10 05:29N 30°41' E 121°17'0 0.0
2016-Jun-10 04:29N 30°41' E 121°17'0 0.0
2016-Jun-10 03:23N 30°41' E 121°17'0 0.0
2016-Jun-10 02:29N 30°41' E 121°17'0 0.0
2016-Jun-10 01:17N 30°41' E 121°17'0 0.0
2016-Jun-10 00:32N 30°41' E 121°17'0 0.0
2016-Jun-09 23:32N 30°41' E 121°17'0 0.0
2016-Jun-09 22:29N 30°41' E 121°17'0 0.0
2016-Jun-09 21:29N 30°41' E 121°17'0 0.0
2016-Jun-09 20:32N 30°41' E 121°17'0 0.0
2016-Jun-09 19:32N 30°41' E 121°17'  

Dump ship's entire track history